createdAt,value
2023-02-09T00:01:20.775Z,45.46
2023-02-09T00:03:47.384Z,45.94
2023-02-09T00:06:17.588Z,46.26
2023-02-09T00:08:44.801Z,45.71
2023-02-09T00:11:18.664Z,45.92
2023-02-09T00:13:45.464Z,45.45
2023-02-09T00:16:12.152Z,45.51
2023-02-09T00:18:38.716Z,44.97
2023-02-09T00:21:08.752Z,44.79
2023-02-09T00:23:38.691Z,45.22
2023-02-09T00:26:08.797Z,44.83
2023-02-09T00:28:36.021Z,45.70
2023-02-09T00:31:10.644Z,45.26
2023-02-09T00:33:39.911Z,45.45
2023-02-09T00:36:12.309Z,45.84
2023-02-09T00:38:39.204Z,46.29
2023-02-09T00:41:06.372Z,46.30
2023-02-09T00:43:33.569Z,46.98
2023-02-09T00:46:00.257Z,46.74
2023-02-09T00:48:27.282Z,46.17
2023-02-09T00:50:54.363Z,46.60
2023-02-09T00:53:22.442Z,46.31
2023-02-09T00:55:49.656Z,46.09
2023-02-09T00:58:17.100Z,45.99
2023-02-09T01:00:43.852Z,45.55
2023-02-09T01:03:11.112Z,45.84
2023-02-09T01:05:42.142Z,46.03
2023-02-09T01:08:08.910Z,45.94
2023-02-09T01:10:35.578Z,46.03
2023-02-09T01:13:03.231Z,46.04
2023-02-09T01:15:29.778Z,46.02
2023-02-09T01:17:57.972Z,45.84
2023-02-09T01:20:25.654Z,45.65
2023-02-09T01:22:52.871Z,45.35
2023-02-09T01:25:19.499Z,44.79
2023-02-09T01:27:46.036Z,45.19
2023-02-09T01:30:13.095Z,45.25
2023-02-09T01:32:39.604Z,45.54
2023-02-09T01:35:06.685Z,45.15
2023-02-09T01:37:34.679Z,45.37
2023-02-09T01:40:01.880Z,45.54
2023-02-09T01:42:28.728Z,45.55
2023-02-09T01:45:21.414Z,46.01
2023-02-09T01:47:56.980Z,45.65
2023-02-09T01:50:26.040Z,45.42
2023-02-09T01:52:53.135Z,45.10
2023-02-09T01:55:25.171Z,45.47
2023-02-09T01:58:03.667Z,46.25
2023-02-09T02:00:30.264Z,46.34
2023-02-09T02:03:02.127Z,45.83
2023-02-09T02:05:29.888Z,45.49
2023-02-09T02:08:09.023Z,45.54
2023-02-09T02:10:35.607Z,46.37
2023-02-09T02:13:02.976Z,45.54
2023-02-09T02:16:03.738Z,45.99
2023-02-09T02:18:33.408Z,46.11
2023-02-09T02:21:18.107Z,46.12
2023-02-09T02:24:29.800Z,45.83
2023-02-09T02:27:09.723Z,45.59
2023-02-09T02:30:06.237Z,45.42
2023-02-09T02:32:32.700Z,45.06
2023-02-09T02:35:16.749Z,45.36
2023-02-09T02:37:55.638Z,45.77
2023-02-09T02:40:41.072Z,45.29
2023-02-09T02:43:20.629Z,44.92
2023-02-09T02:46:10.947Z,45.04
2023-02-09T02:48:53.101Z,45.35
2023-02-09T02:51:28.258Z,44.91
2023-02-09T02:53:58.223Z,45.22
2023-02-09T02:56:30.348Z,45.07
2023-02-09T02:58:59.784Z,44.33
2023-02-09T03:01:33.996Z,44.47
2023-02-09T03:04:03.698Z,44.96
2023-02-09T03:06:33.434Z,45.51
2023-02-09T03:09:00.118Z,45.53
2023-02-09T03:11:35.940Z,44.76
2023-02-09T03:14:20.807Z,44.92
2023-02-09T03:16:59.872Z,46.07
2023-02-09T03:19:41.045Z,45.06
2023-02-09T03:22:23.060Z,44.66
2023-02-09T03:25:00.044Z,44.73
2023-02-09T03:27:41.115Z,45.26
2023-02-09T03:30:11.478Z,45.12
2023-02-09T03:32:40.763Z,45.18
2023-02-09T03:35:10.281Z,45.12
2023-02-09T03:37:36.804Z,45.49
2023-02-09T03:40:03.633Z,44.72
2023-02-09T03:42:30.207Z,44.93
2023-02-09T03:44:56.870Z,45.26
2023-02-09T03:47:23.407Z,45.21
2023-02-09T03:49:50.034Z,44.36
2023-02-09T03:52:17.352Z,44.79
2023-02-09T03:54:44.233Z,44.44
2023-02-09T03:57:11.041Z,44.70
2023-02-09T03:59:38.038Z,44.60
2023-02-09T04:02:06.886Z,44.58
2023-02-09T04:04:33.793Z,44.42
2023-02-09T04:07:00.320Z,44.48
2023-02-09T04:09:28.109Z,44.45
2023-02-09T04:11:55.931Z,44.75
2023-02-09T04:14:22.687Z,44.52
2023-02-09T04:16:49.242Z,44.69
2023-02-09T04:19:15.862Z,44.97
2023-02-09T04:21:42.430Z,44.39
2023-02-09T04:24:09.275Z,44.55
2023-02-09T04:26:36.077Z,44.83
2023-02-09T04:29:03.050Z,44.77
2023-02-09T04:31:30.534Z,45.04
2023-02-09T04:33:57.115Z,44.76
2023-02-09T04:36:23.693Z,44.25
2023-02-09T04:38:50.493Z,44.79
2023-02-09T04:41:17.123Z,44.39
2023-02-09T04:43:43.751Z,44.44
2023-02-09T04:46:14.837Z,44.09
2023-02-09T04:48:41.993Z,44.28
2023-02-09T04:51:09.065Z,44.91
2023-02-09T04:53:36.004Z,44.91
2023-02-09T04:56:02.575Z,44.33
2023-02-09T04:58:47.674Z,45.12
2023-02-09T05:01:19.387Z,44.95
2023-02-09T05:03:46.037Z,44.90
2023-02-09T05:06:12.659Z,45.24
2023-02-09T05:08:39.187Z,45.20
2023-02-09T05:11:06.266Z,45.25
2023-02-09T05:13:32.800Z,45.39
2023-02-09T05:15:59.298Z,45.12
2023-02-09T05:18:25.940Z,45.21
2023-02-09T05:20:52.633Z,44.97
2023-02-09T05:23:19.318Z,45.32
2023-02-09T05:25:47.247Z,45.29
2023-02-09T05:28:14.234Z,45.38
2023-02-09T05:30:40.857Z,45.46
2023-02-09T05:33:07.529Z,45.22
2023-02-09T05:35:34.146Z,45.39
2023-02-09T05:38:01.129Z,44.98
2023-02-09T05:40:27.658Z,45.46
2023-02-09T05:42:54.928Z,45.75
2023-02-09T05:45:23.190Z,45.56
2023-02-09T05:47:49.750Z,45.70
2023-02-09T05:50:16.733Z,46.36
2023-02-09T05:52:43.282Z,46.47
2023-02-09T05:55:09.805Z,46.03
2023-02-09T05:57:36.456Z,45.85
2023-02-09T06:00:04.894Z,46.09
2023-02-09T06:02:38.756Z,46.17
2023-02-09T06:05:05.780Z,46.18
2023-02-09T06:07:32.377Z,46.83
2023-02-09T06:09:58.897Z,46.45
2023-02-09T06:12:25.666Z,46.31
2023-02-09T06:14:52.188Z,46.30
2023-02-09T06:17:18.742Z,46.59
2023-02-09T06:19:45.282Z,46.20
2023-02-09T06:22:11.819Z,46.15
2023-02-09T06:24:38.382Z,46.40
2023-02-09T06:27:04.967Z,46.37
2023-02-09T06:29:31.601Z,46.57
2023-02-09T06:31:58.281Z,45.83
2023-02-09T06:34:25.682Z,46.31
2023-02-09T06:36:52.263Z,45.90
2023-02-09T06:39:18.810Z,46.14
2023-02-09T06:41:45.690Z,45.89
2023-02-09T06:44:13.027Z,45.89
2023-02-09T06:46:39.741Z,46.34
2023-02-09T06:49:06.485Z,46.20
2023-02-09T06:51:33.181Z,45.96
2023-02-09T06:53:59.955Z,45.95
2023-02-09T06:56:26.472Z,46.29
2023-02-09T06:58:53.252Z,45.77
2023-02-09T07:01:19.879Z,46.10
2023-02-09T07:03:46.438Z,45.87
2023-02-09T07:06:16.077Z,46.20
2023-02-09T07:08:43.379Z,46.11
2023-02-09T07:11:12.703Z,45.66
2023-02-09T07:13:39.441Z,46.23
2023-02-09T07:16:08.314Z,45.70
2023-02-09T07:18:35.594Z,45.55
2023-02-09T07:21:11.295Z,45.06
2023-02-09T07:23:38.982Z,44.91
2023-02-09T07:26:08.025Z,44.95
2023-02-09T07:28:36.010Z,44.66
2023-02-09T07:31:05.198Z,44.86
2023-02-09T07:33:32.565Z,44.05
2023-02-09T07:35:59.423Z,44.55
2023-02-09T07:38:26.220Z,44.20
2023-02-09T07:40:53.143Z,44.50
2023-02-09T07:43:19.817Z,44.13
2023-02-09T07:45:46.867Z,44.03
2023-02-09T07:48:13.679Z,43.98
2023-02-09T07:50:40.573Z,43.92
2023-02-09T07:53:07.931Z,44.17
2023-02-09T07:55:34.426Z,43.71
2023-02-09T07:58:01.070Z,43.71
2023-02-09T08:00:27.715Z,43.28
2023-02-09T08:02:54.923Z,43.04
2023-02-09T08:05:28.212Z,43.08
2023-02-09T08:07:55.978Z,42.97
2023-02-09T08:10:23.215Z,42.90
2023-02-09T08:13:02.897Z,42.60
2023-02-09T08:15:41.769Z,42.02
2023-02-09T08:18:22.905Z,42.01
2023-02-09T08:20:51.991Z,41.96
2023-02-09T08:23:26.756Z,41.95
2023-02-09T08:25:54.342Z,41.73
2023-02-09T08:28:22.734Z,41.48
2023-02-09T08:30:52.038Z,41.09
2023-02-09T08:33:18.612Z,41.34
2023-02-09T08:35:45.648Z,40.52
2023-02-09T08:38:12.379Z,40.65
2023-02-09T08:40:41.334Z,40.33
2023-02-09T08:43:08.502Z,39.26
2023-02-09T08:45:36.865Z,39.46
2023-02-09T08:48:04.408Z,39.54
2023-02-09T08:50:30.956Z,38.87
2023-02-09T08:52:57.901Z,38.78
2023-02-09T08:55:24.660Z,39.11
2023-02-09T08:57:51.326Z,38.64
2023-02-09T09:00:18.430Z,38.62
2023-02-09T09:02:45.000Z,38.18
2023-02-09T09:05:11.718Z,36.88
2023-02-09T09:07:38.280Z,36.90
2023-02-09T09:10:05.885Z,36.34
2023-02-09T09:12:32.436Z,36.45
2023-02-09T09:14:58.959Z,36.37
2023-02-09T09:17:25.585Z,36.08
2023-02-09T09:19:56.309Z,36.58
2023-02-09T09:22:23.608Z,36.47
2023-02-09T09:24:50.191Z,36.43
2023-02-09T09:27:16.719Z,36.29
2023-02-09T09:29:43.228Z,36.33
2023-02-09T09:32:15.883Z,35.75
2023-02-09T09:34:43.410Z,35.44
2023-02-09T09:37:10.010Z,36.32
2023-02-09T09:39:36.527Z,35.78
2023-02-09T09:42:05.999Z,35.21
2023-02-09T09:44:38.024Z,35.17
2023-02-09T09:47:10.428Z,35.37
2023-02-09T09:49:37.890Z,34.62
2023-02-09T09:52:31.994Z,34.88
2023-02-09T09:55:01.321Z,35.26
2023-02-09T09:57:30.274Z,34.71
2023-02-09T09:59:57.581Z,34.30
2023-02-09T10:02:31.721Z,34.46
2023-02-09T10:05:18.420Z,34.68
2023-02-09T10:07:53.817Z,34.59
2023-02-09T10:10:47.978Z,34.05
2023-02-09T10:13:33.707Z,34.51
2023-02-09T10:16:01.066Z,33.51
2023-02-09T10:18:30.122Z,33.55
2023-02-09T10:21:08.617Z,33.31
2023-02-09T10:23:43.069Z,33.00
2023-02-09T10:26:09.586Z,32.75
2023-02-09T10:28:49.171Z,32.44
2023-02-09T10:31:19.383Z,32.71
2023-02-09T10:33:50.296Z,32.58
2023-02-09T10:36:27.650Z,31.76
2023-02-09T10:39:19.171Z,31.37
2023-02-09T10:41:50.032Z,31.03
2023-02-09T10:44:26.847Z,31.36
2023-02-09T10:47:19.609Z,30.35
2023-02-09T10:50:10.581Z,29.58
2023-02-09T10:52:42.168Z,29.46
2023-02-09T10:55:24.413Z,28.73
2023-02-09T10:57:51.021Z,28.05
2023-02-09T11:00:17.494Z,28.61
2023-02-09T11:02:52.975Z,28.20
2023-02-09T11:05:22.513Z,27.64
2023-02-09T11:08:05.522Z,25.73
2023-02-09T11:10:35.464Z,24.89
2023-02-09T11:13:02.622Z,22.13
2023-02-09T11:15:40.739Z,20.99
2023-02-09T11:18:16.896Z,18.98
2023-02-09T11:21:13.681Z,17.42
2023-02-09T11:23:58.748Z,18.63
2023-02-09T11:27:17.995Z,20.47
2023-02-09T11:30:02.541Z,18.53
2023-02-09T11:32:41.871Z,17.62
2023-02-09T11:35:12.224Z,15.53
2023-02-09T11:38:01.659Z,14.76
2023-02-09T11:40:45.943Z,15.66
2023-02-09T11:43:17.635Z,15.03
2023-02-09T11:45:47.584Z,14.24
2023-02-09T11:48:25.711Z,14.51
2023-02-09T11:51:16.407Z,14.68
2023-02-09T11:54:07.434Z,15.34
2023-02-09T11:56:41.662Z,17.38
2023-02-09T11:59:18.778Z,18.05
2023-02-09T12:02:24.565Z,18.54
2023-02-09T12:04:51.119Z,20.09
2023-02-09T12:07:23.914Z,21.36
2023-02-09T12:09:59.365Z,22.80
2023-02-09T12:12:32.957Z,23.46
2023-02-09T12:15:15.983Z,24.03
2023-02-09T12:17:53.942Z,23.65
2023-02-09T12:20:29.438Z,24.59
2023-02-09T12:23:25.356Z,23.77
2023-02-09T12:26:00.876Z,23.85
2023-02-09T12:28:27.447Z,23.47
2023-02-09T12:30:58.144Z,24.03
2023-02-09T12:33:24.677Z,22.74
2023-02-09T12:36:07.854Z,20.44
2023-02-09T12:39:04.669Z,19.17
2023-02-09T12:41:34.563Z,18.50
2023-02-09T12:44:10.459Z,17.68
2023-02-09T12:46:51.901Z,17.99
2023-02-09T12:49:27.550Z,19.22
2023-02-09T12:52:03.195Z,19.48
2023-02-09T12:54:46.886Z,19.70
2023-02-09T12:57:16.409Z,18.65
2023-02-09T13:00:03.653Z,16.10
2023-02-09T13:02:49.931Z,15.05
2023-02-09T13:05:27.366Z,14.37
2023-02-09T13:08:18.300Z,14.63
2023-02-09T13:10:50.886Z,14.69
2023-02-09T13:13:24.205Z,14.33
2023-02-09T13:15:50.690Z,15.20
2023-02-09T13:18:23.300Z,15.46
2023-02-09T13:20:59.569Z,16.89
2023-02-09T13:23:35.154Z,17.59
2023-02-09T13:26:16.724Z,18.72
2023-02-09T13:28:43.581Z,18.45
2023-02-09T13:31:23.650Z,18.20
2023-02-09T13:33:55.861Z,16.47
2023-02-09T13:36:38.493Z,15.45
2023-02-09T13:39:16.765Z,13.78
2023-02-09T13:41:44.714Z,12.43
2023-02-09T13:44:26.630Z,12.75
2023-02-09T13:47:01.974Z,13.25
2023-02-09T13:49:30.049Z,14.18
2023-02-09T13:52:15.245Z,14.23
2023-02-09T13:54:43.939Z,14.62
2023-02-09T13:57:35.785Z,15.64
2023-02-09T14:00:21.675Z,16.97
2023-02-09T14:02:54.007Z,17.18
2023-02-09T14:05:29.541Z,17.44
2023-02-09T14:07:56.564Z,17.46
2023-02-09T14:10:25.777Z,18.31
2023-02-09T14:13:10.180Z,18.37
2023-02-09T14:16:04.083Z,19.70
2023-02-09T14:18:47.695Z,22.08
2023-02-09T14:21:23.478Z,21.97
2023-02-09T14:24:26.295Z,21.69
2023-02-09T14:26:54.554Z,22.13
2023-02-09T14:29:30.688Z,22.12
2023-02-09T14:32:32.021Z,21.73
2023-02-09T14:34:59.371Z,22.69
2023-02-09T14:37:29.528Z,23.23
2023-02-09T14:40:20.920Z,23.38
2023-02-09T14:43:02.678Z,24.00
2023-02-09T14:45:47.873Z,24.24
2023-02-09T14:48:28.932Z,22.29
2023-02-09T14:50:58.062Z,20.84
2023-02-09T14:53:28.282Z,20.35
2023-02-09T14:55:55.968Z,20.54
2023-02-09T14:58:28.304Z,21.10
2023-02-09T15:01:00.028Z,21.20
2023-02-09T15:03:27.571Z,21.81
2023-02-09T15:06:03.187Z,21.76
2023-02-09T15:08:33.112Z,21.80
2023-02-09T15:11:02.718Z,21.10
2023-02-09T15:13:31.178Z,21.11
2023-02-09T15:15:57.752Z,21.10
2023-02-09T15:18:26.382Z,21.86
2023-02-09T15:20:53.202Z,23.18
2023-02-09T15:23:19.777Z,24.24
2023-02-09T15:25:46.698Z,24.92
2023-02-09T15:28:28.986Z,25.70
2023-02-09T15:30:57.218Z,26.72
2023-02-09T15:33:26.072Z,27.08
2023-02-09T15:35:52.772Z,28.01
2023-02-09T15:38:19.798Z,29.14
2023-02-09T15:41:06.637Z,29.52
2023-02-09T15:43:52.101Z,29.99
2023-02-09T15:46:38.089Z,30.42
2023-02-09T15:49:05.632Z,30.99
2023-02-09T15:51:36.479Z,31.40
2023-02-09T15:54:16.021Z,31.33
2023-02-09T15:56:42.674Z,31.78
2023-02-09T15:59:17.920Z,31.92
2023-02-09T16:01:44.939Z,32.31
2023-02-09T16:04:14.381Z,32.59
2023-02-09T16:06:51.196Z,32.75
2023-02-09T16:09:21.832Z,33.11
2023-02-09T16:11:48.620Z,33.56
2023-02-09T16:14:20.791Z,33.64
2023-02-09T16:16:47.739Z,33.53
2023-02-09T16:19:14.481Z,33.55
2023-02-09T16:21:47.837Z,33.69
2023-02-09T16:24:45.062Z,33.82
2023-02-09T16:27:17.580Z,33.94
2023-02-09T16:29:44.231Z,34.40
2023-02-09T16:32:16.663Z,34.40
2023-02-09T16:34:44.348Z,34.77
2023-02-09T16:37:29.031Z,34.75
2023-02-09T16:39:57.997Z,35.65
2023-02-09T16:42:25.430Z,35.90
2023-02-09T16:44:52.973Z,36.34
2023-02-09T16:47:23.448Z,36.20
2023-02-09T16:49:59.457Z,36.21
2023-02-09T16:52:27.312Z,36.45
2023-02-09T16:54:58.152Z,36.77
2023-02-09T16:57:26.601Z,36.80
2023-02-09T16:59:54.230Z,37.08
2023-02-09T17:02:34.897Z,37.37
2023-02-09T17:05:13.563Z,37.86
2023-02-09T17:07:53.664Z,38.07
2023-02-09T17:10:24.203Z,38.10
2023-02-09T17:12:53.223Z,38.36
2023-02-09T17:15:29.997Z,39.17
2023-02-09T17:18:06.811Z,39.37
2023-02-09T17:20:41.077Z,39.51
2023-02-09T17:23:10.112Z,39.68
2023-02-09T17:25:36.716Z,39.77
2023-02-09T17:28:03.371Z,40.17
2023-02-09T17:30:32.806Z,40.13
2023-02-09T17:33:02.949Z,40.18
2023-02-09T17:35:58.006Z,40.33
2023-02-09T17:38:22.653Z,40.93
2023-02-09T17:40:50.748Z,40.74
2023-02-09T17:43:18.032Z,41.23
2023-02-09T17:45:49.486Z,40.71
2023-02-09T17:48:19.884Z,40.78
2023-02-09T17:50:52.536Z,40.94
2023-02-09T17:53:24.737Z,41.93
2023-02-09T17:55:53.904Z,42.17
2023-02-09T17:58:20.477Z,41.73
2023-02-09T18:00:47.051Z,42.31
2023-02-09T18:03:19.164Z,41.84
2023-02-09T18:05:50.592Z,41.80
2023-02-09T18:08:18.665Z,41.60
2023-02-09T18:10:45.226Z,41.85
2023-02-09T18:13:20.310Z,41.93
2023-02-09T18:15:48.765Z,42.06
2023-02-09T18:18:15.484Z,41.97
2023-02-09T18:20:42.475Z,42.37
2023-02-09T18:23:14.783Z,42.26
2023-02-09T18:25:41.373Z,42.45
2023-02-09T18:28:07.977Z,42.22
2023-02-09T18:30:39.030Z,42.51
2023-02-09T18:33:07.102Z,42.80
2023-02-09T18:35:36.831Z,43.14
2023-02-09T18:38:05.609Z,42.94
2023-02-09T18:40:32.508Z,43.53
2023-02-09T18:43:00.636Z,43.15
2023-02-09T18:45:28.521Z,43.57
2023-02-09T18:47:55.207Z,43.19
2023-02-09T18:50:27.179Z,43.49
2023-02-09T18:52:56.535Z,42.95
2023-02-09T18:55:25.566Z,43.13
2023-02-09T18:57:52.433Z,43.61
2023-02-09T19:00:20.344Z,43.74
2023-02-09T19:02:48.079Z,43.09
2023-02-09T19:05:16.600Z,43.19
2023-02-09T19:07:43.847Z,42.83
2023-02-09T19:10:14.105Z,43.42
2023-02-09T19:12:41.437Z,43.40
2023-02-09T19:15:08.653Z,43.40
2023-02-09T19:17:35.371Z,43.69
2023-02-09T19:20:04.220Z,43.96
2023-02-09T19:22:31.434Z,43.67
2023-02-09T19:24:58.398Z,43.83
2023-02-09T19:27:26.873Z,43.87
2023-02-09T19:29:55.622Z,43.62
2023-02-09T19:32:23.388Z,44.03
2023-02-09T19:34:51.259Z,43.78
2023-02-09T19:37:20.718Z,43.76
2023-02-09T19:40:00.335Z,44.26
2023-02-09T19:42:26.865Z,43.97
2023-02-09T19:44:54.437Z,44.25
2023-02-09T19:47:27.520Z,44.64
2023-02-09T19:49:58.214Z,44.85
2023-02-09T19:52:26.189Z,44.72
2023-02-09T19:54:52.760Z,44.60
2023-02-09T19:57:20.739Z,44.24
2023-02-09T19:59:47.734Z,45.06
2023-02-09T20:02:15.894Z,45.12
2023-02-09T20:04:43.096Z,45.44
2023-02-09T20:07:10.803Z,45.47
2023-02-09T20:09:37.481Z,45.13
2023-02-09T20:12:04.618Z,45.54
2023-02-09T20:14:33.477Z,44.98
2023-02-09T20:17:00.601Z,45.32
2023-02-09T20:19:27.596Z,45.28
2023-02-09T20:21:54.162Z,45.04
2023-02-09T20:24:20.747Z,45.09
2023-02-09T20:26:48.063Z,44.70
2023-02-09T20:29:16.649Z,45.18
2023-02-09T20:31:43.329Z,45.64
2023-02-09T20:34:12.754Z,45.56
2023-02-09T20:36:41.072Z,45.67
2023-02-09T20:39:10.828Z,45.45
2023-02-09T20:41:37.358Z,45.39
2023-02-09T20:44:22.478Z,45.60
2023-02-09T20:46:58.211Z,45.78
2023-02-09T20:49:30.976Z,45.61
2023-02-09T20:51:58.103Z,45.54
2023-02-09T20:54:25.083Z,45.62
2023-02-09T20:56:51.690Z,45.86
2023-02-09T20:59:18.265Z,45.39
2023-02-09T21:01:45.907Z,45.70
2023-02-09T21:04:12.604Z,46.05
2023-02-09T21:06:39.256Z,45.80
2023-02-09T21:09:08.214Z,45.87
2023-02-09T21:11:34.810Z,45.82
2023-02-09T21:14:01.432Z,45.67
2023-02-09T21:16:28.994Z,45.54
2023-02-09T21:18:55.511Z,45.83
2023-02-09T21:21:22.301Z,45.52
2023-02-09T21:23:48.890Z,45.80
2023-02-09T21:26:17.632Z,45.86
2023-02-09T21:28:45.232Z,45.82
2023-02-09T21:31:14.177Z,45.91
2023-02-09T21:33:40.774Z,45.84
2023-02-09T21:36:07.824Z,46.04
2023-02-09T21:38:41.357Z,45.92
2023-02-09T21:41:09.026Z,46.18
2023-02-09T21:43:35.658Z,45.99
2023-02-09T21:46:02.347Z,45.84
2023-02-09T21:48:28.904Z,46.23
2023-02-09T21:50:55.722Z,46.03
2023-02-09T21:53:22.380Z,46.31
2023-02-09T21:55:48.915Z,46.10
2023-02-09T21:58:15.468Z,46.17
2023-02-09T22:00:42.377Z,46.21
2023-02-09T22:03:09.466Z,46.14
2023-02-09T22:05:35.955Z,46.31
2023-02-09T22:08:02.475Z,46.02
2023-02-09T22:10:29.022Z,46.17
2023-02-09T22:12:55.553Z,45.98
2023-02-09T22:15:22.254Z,46.24
2023-02-09T22:17:49.170Z,45.98
2023-02-09T22:20:15.744Z,46.06
2023-02-09T22:22:45.184Z,46.12
2023-02-09T22:25:11.714Z,45.78
2023-02-09T22:27:38.309Z,45.79
2023-02-09T22:30:05.041Z,45.92
2023-02-09T22:32:31.608Z,46.16
2023-02-09T22:34:58.124Z,46.63
2023-02-09T22:37:24.703Z,46.78
2023-02-09T22:39:51.206Z,46.65
2023-02-09T22:42:17.728Z,46.69
2023-02-09T22:44:44.257Z,46.71
2023-02-09T22:47:10.863Z,46.86
2023-02-09T22:49:37.472Z,46.93
2023-02-09T22:52:04.089Z,46.75
2023-02-09T22:54:30.725Z,46.57
2023-02-09T22:56:57.243Z,46.75
2023-02-09T22:59:23.885Z,46.66
2023-02-09T23:01:51.009Z,46.54
2023-02-09T23:04:17.656Z,46.72
2023-02-09T23:06:44.343Z,46.56
2023-02-09T23:09:12.544Z,46.45
2023-02-09T23:11:39.171Z,46.80
2023-02-09T23:14:10.012Z,46.68
2023-02-09T23:16:39.502Z,47.44
2023-02-09T23:19:08.827Z,47.11
2023-02-09T23:21:38.230Z,47.07
2023-02-09T23:24:05.722Z,47.01
2023-02-09T23:26:32.966Z,47.13
2023-02-09T23:29:01.501Z,47.34
2023-02-09T23:31:28.808Z,47.29
2023-02-09T23:33:55.503Z,47.46
2023-02-09T23:36:25.031Z,47.32
2023-02-09T23:38:57.517Z,47.52
2023-02-09T23:41:25.024Z,47.55
2023-02-09T23:43:52.573Z,47.29
2023-02-09T23:46:22.504Z,47.43
2023-02-09T23:48:49.889Z,47.60
2023-02-09T23:51:19.802Z,47.56
2023-02-09T23:53:47.752Z,47.79
2023-02-09T23:56:17.290Z,47.61
2023-02-09T23:58:47.204Z,47.68
